createdAt,value
2022-11-27T00:00:46.761Z,84.58
2022-11-27T00:03:13.352Z,84.30
2022-11-27T00:05:39.962Z,84.17
2022-11-27T00:08:06.454Z,83.75
2022-11-27T00:10:32.894Z,83.59
2022-11-27T00:12:59.389Z,83.90
2022-11-27T00:15:25.826Z,83.47
2022-11-27T00:17:52.254Z,83.98
2022-11-27T00:20:18.716Z,83.62
2022-11-27T00:22:45.131Z,84.01
2022-11-27T00:25:11.608Z,84.24
2022-11-27T00:27:38.051Z,83.96
2022-11-27T00:30:05.067Z,84.20
2022-11-27T00:32:31.557Z,83.60
2022-11-27T00:34:57.999Z,84.00
2022-11-27T00:37:24.440Z,84.01
2022-11-27T00:39:50.892Z,84.44
2022-11-27T00:42:17.560Z,84.74
2022-11-27T00:44:43.989Z,84.90
2022-11-27T00:47:10.398Z,84.18
2022-11-27T00:49:37.067Z,84.01
2022-11-27T00:52:03.794Z,83.42
2022-11-27T00:54:30.265Z,83.44
2022-11-27T00:56:56.720Z,83.26
2022-11-27T00:59:23.153Z,83.60
2022-11-27T01:01:49.723Z,84.02
2022-11-27T01:04:16.624Z,83.65
2022-11-27T01:06:43.935Z,83.46
2022-11-27T01:09:13.948Z,83.87
2022-11-27T01:11:41.822Z,83.61
2022-11-27T01:14:14.956Z,83.91
2022-11-27T01:16:43.364Z,84.07
2022-11-27T01:19:11.261Z,83.59
2022-11-27T01:21:37.736Z,83.65
2022-11-27T01:24:05.270Z,83.70
2022-11-27T01:26:31.934Z,83.92
2022-11-27T01:28:59.445Z,83.53
2022-11-27T01:31:28.370Z,83.09
2022-11-27T01:33:57.169Z,83.19
2022-11-27T01:36:24.297Z,83.43
2022-11-27T01:38:51.073Z,83.49
2022-11-27T01:41:25.838Z,84.15
2022-11-27T01:43:58.263Z,83.98
2022-11-27T01:46:43.155Z,84.23
2022-11-27T01:49:09.568Z,83.56
2022-11-27T01:51:52.514Z,83.21
2022-11-27T01:54:21.097Z,83.11
2022-11-27T01:56:51.987Z,84.02
2022-11-27T01:59:19.399Z,83.96
2022-11-27T02:01:45.899Z,83.23
2022-11-27T02:04:12.777Z,83.85
2022-11-27T02:06:39.502Z,83.91
2022-11-27T02:09:06.649Z,83.82
2022-11-27T02:11:55.623Z,83.78
2022-11-27T02:14:27.804Z,83.77
2022-11-27T02:17:15.544Z,83.63
2022-11-27T02:20:18.902Z,82.95
2022-11-27T02:22:56.369Z,83.42
2022-11-27T02:26:10.377Z,83.46
2022-11-27T02:29:01.434Z,83.71
2022-11-27T02:31:30.556Z,83.80
2022-11-27T02:34:08.972Z,84.47
2022-11-27T02:36:37.817Z,84.13
2022-11-27T02:39:14.908Z,83.41
2022-11-27T02:41:50.838Z,83.46
2022-11-27T02:44:18.200Z,83.23
2022-11-27T02:46:46.534Z,83.68
2022-11-27T02:49:16.476Z,83.58
2022-11-27T02:51:49.370Z,82.78
2022-11-27T02:54:20.716Z,82.93
2022-11-27T02:56:49.415Z,82.89
2022-11-27T02:59:18.167Z,82.84
2022-11-27T03:01:51.504Z,83.23
2022-11-27T03:04:23.351Z,82.64
2022-11-27T03:06:54.852Z,83.33
2022-11-27T03:09:31.936Z,83.00
2022-11-27T03:11:59.046Z,82.83
2022-11-27T03:14:25.922Z,83.19
2022-11-27T03:17:06.308Z,83.15
2022-11-27T03:19:41.956Z,82.77
2022-11-27T03:22:08.823Z,83.12
2022-11-27T03:24:35.966Z,82.64
2022-11-27T03:27:03.973Z,82.62
2022-11-27T03:29:41.199Z,82.86
2022-11-27T03:32:07.809Z,82.76
2022-11-27T03:34:35.133Z,83.17
2022-11-27T03:37:01.794Z,82.79
2022-11-27T03:39:30.380Z,83.26
2022-11-27T03:42:11.780Z,83.13
2022-11-27T03:45:03.102Z,83.10
2022-11-27T03:47:45.590Z,83.21
2022-11-27T03:50:28.206Z,83.18
2022-11-27T03:53:06.883Z,83.22
2022-11-27T03:56:11.727Z,83.27
2022-11-27T03:58:43.162Z,83.08
2022-11-27T04:01:13.334Z,82.94
2022-11-27T04:03:40.253Z,83.42
2022-11-27T04:06:06.819Z,83.66
2022-11-27T04:08:33.287Z,82.73
2022-11-27T04:10:59.795Z,83.70
2022-11-27T04:13:26.249Z,83.39
2022-11-27T04:15:52.772Z,83.68
2022-11-27T04:18:19.249Z,83.22
2022-11-27T04:20:45.757Z,82.85
2022-11-27T04:23:12.220Z,83.17
2022-11-27T04:25:38.651Z,83.60
2022-11-27T04:28:05.366Z,83.34
2022-11-27T04:30:31.829Z,83.07
2022-11-27T04:32:58.289Z,83.08
2022-11-27T04:35:24.767Z,82.94
2022-11-27T04:37:51.243Z,82.87
2022-11-27T04:40:18.014Z,82.57
2022-11-27T04:42:44.446Z,83.29
2022-11-27T04:45:11.317Z,82.88
2022-11-27T04:47:37.801Z,82.85
2022-11-27T04:50:04.770Z,83.23
2022-11-27T04:52:31.228Z,82.59
2022-11-27T04:55:00.323Z,82.41
2022-11-27T04:57:27.890Z,82.87
2022-11-27T04:59:54.545Z,83.25
2022-11-27T05:02:21.243Z,82.55
2022-11-27T05:04:47.732Z,83.41
2022-11-27T05:07:14.304Z,83.68
2022-11-27T05:09:41.042Z,83.21
2022-11-27T05:12:07.598Z,83.29
2022-11-27T05:14:34.058Z,82.58
2022-11-27T05:17:00.697Z,83.05
2022-11-27T05:19:29.861Z,83.68
2022-11-27T05:21:56.706Z,83.19
2022-11-27T05:24:25.942Z,83.14
2022-11-27T05:26:53.078Z,83.51
2022-11-27T05:29:20.110Z,82.99
2022-11-27T05:31:46.662Z,82.69
2022-11-27T05:34:13.754Z,83.11
2022-11-27T05:36:40.488Z,83.58
2022-11-27T05:39:08.473Z,82.60
2022-11-27T05:41:37.131Z,82.50
2022-11-27T05:44:04.762Z,82.28
2022-11-27T05:46:31.380Z,83.34
2022-11-27T05:48:58.336Z,82.45
2022-11-27T05:51:25.049Z,83.82
2022-11-27T05:53:51.646Z,83.05
2022-11-27T05:56:18.909Z,83.59
2022-11-27T05:58:47.556Z,84.12
2022-11-27T06:01:15.190Z,83.99
2022-11-27T06:03:41.750Z,83.96
2022-11-27T06:06:10.415Z,83.15
2022-11-27T06:08:38.276Z,83.83
2022-11-27T06:11:13.494Z,83.12
2022-11-27T06:13:40.347Z,83.08
2022-11-27T06:16:19.135Z,83.57
2022-11-27T06:18:45.892Z,82.99
2022-11-27T06:21:14.881Z,83.57
2022-11-27T06:23:42.808Z,84.10
2022-11-27T06:26:17.339Z,83.39
2022-11-27T06:28:45.151Z,83.69
2022-11-27T06:31:18.140Z,83.49
2022-11-27T06:33:46.255Z,83.64
2022-11-27T06:36:12.732Z,83.76
2022-11-27T06:38:39.365Z,83.55
2022-11-27T06:41:08.062Z,82.52
2022-11-27T06:43:35.373Z,83.31
2022-11-27T06:46:03.247Z,82.92
2022-11-27T06:48:30.339Z,83.10
2022-11-27T06:51:05.374Z,83.52
2022-11-27T06:53:34.394Z,83.19
2022-11-27T06:56:06.819Z,83.85
2022-11-27T06:58:33.320Z,84.55
2022-11-27T07:01:01.283Z,84.82
2022-11-27T07:03:28.014Z,85.23
2022-11-27T07:05:54.611Z,84.92
2022-11-27T07:08:22.294Z,85.01
2022-11-27T07:10:48.759Z,84.97
2022-11-27T07:13:15.242Z,85.27
2022-11-27T07:15:42.052Z,86.20
2022-11-27T07:18:08.503Z,86.29
2022-11-27T07:20:34.943Z,86.45
2022-11-27T07:23:01.438Z,86.21
2022-11-27T07:25:27.926Z,86.06
2022-11-27T07:27:55.761Z,86.41
2022-11-27T07:30:22.237Z,85.57
2022-11-27T07:32:48.674Z,86.22
2022-11-27T07:35:15.195Z,86.43
2022-11-27T07:37:41.682Z,86.22
2022-11-27T07:40:08.424Z,86.95
2022-11-27T07:42:39.014Z,86.77
2022-11-27T07:45:07.983Z,87.04
2022-11-27T07:47:34.412Z,86.00
2022-11-27T07:50:01.043Z,86.50
2022-11-27T07:52:27.742Z,86.41
2022-11-27T07:54:54.423Z,86.39
2022-11-27T07:57:21.078Z,87.21
2022-11-27T07:59:47.987Z,87.09
2022-11-27T08:02:15.182Z,87.02
2022-11-27T08:04:42.061Z,86.99
2022-11-27T08:07:08.896Z,87.51
2022-11-27T08:09:35.515Z,87.12
2022-11-27T08:12:01.984Z,87.39
2022-11-27T08:14:28.463Z,87.14
2022-11-27T08:16:55.154Z,87.54
2022-11-27T08:19:22.127Z,87.56
2022-11-27T08:21:48.573Z,87.37
2022-11-27T08:24:15.045Z,87.92
2022-11-27T08:26:41.633Z,88.18
2022-11-27T08:29:11.383Z,88.36
2022-11-27T08:31:37.902Z,88.04
2022-11-27T08:34:05.246Z,88.19
2022-11-27T08:36:31.675Z,88.02
2022-11-27T08:38:58.226Z,88.14
2022-11-27T08:41:24.654Z,88.74
2022-11-27T08:43:51.392Z,87.97
2022-11-27T08:46:17.956Z,88.57
2022-11-27T08:48:44.503Z,88.44
2022-11-27T08:51:13.463Z,88.59
2022-11-27T08:53:40.734Z,88.74
2022-11-27T08:56:09.336Z,88.29
2022-11-27T08:58:35.978Z,87.97
2022-11-27T09:01:14.815Z,88.19
2022-11-27T09:03:41.355Z,87.69
2022-11-27T09:06:10.124Z,87.71
2022-11-27T09:08:37.981Z,88.16
2022-11-27T09:11:04.901Z,88.03
2022-11-27T09:13:31.810Z,88.42
2022-11-27T09:15:58.519Z,87.67
2022-11-27T09:18:25.364Z,87.94
2022-11-27T09:21:00.061Z,88.27
2022-11-27T09:23:26.560Z,87.53
2022-11-27T09:25:53.010Z,87.91
2022-11-27T09:28:19.975Z,88.56
2022-11-27T09:30:46.461Z,88.09
2022-11-27T09:33:13.131Z,88.03
2022-11-27T09:35:39.840Z,88.06
2022-11-27T09:38:06.362Z,88.23
2022-11-27T09:40:34.356Z,87.53
2022-11-27T09:43:09.518Z,87.85
2022-11-27T09:45:46.553Z,87.49
2022-11-27T09:48:20.505Z,87.92
2022-11-27T09:50:51.623Z,88.00
2022-11-27T09:53:27.961Z,88.07
2022-11-27T09:55:57.337Z,87.80
2022-11-27T09:58:29.465Z,87.74
2022-11-27T10:00:55.955Z,87.26
2022-11-27T10:03:26.685Z,87.53
2022-11-27T10:06:11.519Z,86.69
2022-11-27T10:09:17.048Z,86.75
2022-11-27T10:12:02.942Z,87.04
2022-11-27T10:14:59.667Z,86.59
2022-11-27T10:17:32.573Z,86.61
2022-11-27T10:19:58.969Z,86.09
2022-11-27T10:23:03.541Z,86.27
2022-11-27T10:25:57.981Z,85.72
2022-11-27T10:28:49.360Z,85.69
2022-11-27T10:31:53.869Z,84.87
2022-11-27T10:34:31.992Z,84.58
2022-11-27T10:37:02.465Z,84.67
2022-11-27T10:39:36.580Z,84.70
2022-11-27T10:42:10.273Z,84.95
2022-11-27T10:44:44.165Z,85.26
2022-11-27T10:47:13.775Z,85.26
2022-11-27T10:49:42.038Z,84.95
2022-11-27T10:52:14.560Z,84.62
2022-11-27T10:54:42.901Z,84.45
2022-11-27T10:58:11.280Z,84.07
2022-11-27T11:00:37.739Z,84.29
2022-11-27T11:03:06.451Z,84.00
2022-11-27T11:05:51.083Z,84.12
2022-11-27T11:08:21.528Z,83.91
2022-11-27T11:10:56.722Z,84.16
2022-11-27T11:13:29.405Z,83.83
2022-11-27T11:16:33.370Z,83.63
2022-11-27T11:19:02.505Z,84.23
2022-11-27T11:21:32.633Z,83.94
2022-11-27T11:24:06.773Z,83.99
2022-11-27T11:26:40.377Z,83.79
2022-11-27T11:29:38.788Z,83.45
2022-11-27T11:32:19.648Z,84.02
2022-11-27T11:35:23.110Z,83.72
2022-11-27T11:37:50.776Z,83.95
2022-11-27T11:40:20.163Z,83.92
2022-11-27T11:42:58.987Z,84.03
2022-11-27T11:45:32.288Z,83.04
2022-11-27T11:48:02.154Z,83.29
2022-11-27T11:50:41.154Z,83.26
2022-11-27T11:53:39.775Z,83.39
2022-11-27T11:56:37.563Z,83.78
2022-11-27T11:59:15.905Z,83.88
2022-11-27T12:01:54.158Z,83.99
2022-11-27T12:04:51.419Z,84.23
2022-11-27T12:07:52.977Z,84.43
2022-11-27T12:10:45.643Z,83.94
2022-11-27T12:13:14.911Z,83.60
2022-11-27T12:15:49.884Z,83.62
2022-11-27T12:18:33.387Z,83.35
2022-11-27T12:21:35.939Z,83.00
2022-11-27T12:24:05.031Z,82.24
2022-11-27T12:26:37.395Z,82.17
2022-11-27T12:29:21.577Z,82.68
2022-11-27T12:32:08.459Z,83.09
2022-11-27T12:34:50.747Z,83.81
2022-11-27T12:37:41.059Z,84.28
2022-11-27T12:40:48.908Z,83.66
2022-11-27T12:43:25.708Z,83.98
2022-11-27T12:46:14.612Z,84.36
2022-11-27T12:48:46.860Z,84.62
2022-11-27T12:51:22.484Z,84.45
2022-11-27T12:53:54.687Z,84.47
2022-11-27T12:56:43.331Z,84.57
2022-11-27T12:59:30.409Z,84.22
2022-11-27T13:02:13.385Z,83.88
2022-11-27T13:04:57.791Z,83.81
2022-11-27T13:07:39.910Z,83.87
2022-11-27T13:10:34.667Z,83.86
2022-11-27T13:13:11.360Z,83.57
2022-11-27T13:16:00.779Z,83.80
2022-11-27T13:18:52.152Z,85.51
2022-11-27T13:21:23.631Z,85.02
2022-11-27T13:23:51.203Z,85.36
2022-11-27T13:26:26.579Z,84.46
2022-11-27T13:28:58.136Z,84.58
2022-11-27T13:31:29.493Z,83.35
2022-11-27T13:34:02.869Z,83.57
2022-11-27T13:36:38.977Z,84.59
2022-11-27T13:39:06.159Z,84.88
2022-11-27T13:41:40.825Z,85.19
2022-11-27T13:44:27.721Z,83.83
2022-11-27T13:46:59.032Z,83.58
2022-11-27T13:49:31.940Z,82.34
2022-11-27T13:52:11.621Z,81.33
2022-11-27T13:54:38.802Z,82.82
2022-11-27T13:57:15.146Z,82.21
2022-11-27T13:59:41.866Z,82.05
2022-11-27T14:02:09.217Z,81.18
2022-11-27T14:04:54.361Z,81.73
2022-11-27T14:07:24.223Z,82.89
2022-11-27T14:09:56.387Z,82.72
2022-11-27T14:12:32.926Z,82.16
2022-11-27T14:15:11.095Z,82.62
2022-11-27T14:17:43.334Z,82.17
2022-11-27T14:20:09.912Z,84.08
2022-11-27T14:23:10.957Z,84.56
2022-11-27T14:25:38.029Z,86.35
2022-11-27T14:28:12.701Z,86.08
2022-11-27T14:30:49.512Z,86.47
2022-11-27T14:33:18.874Z,86.75
2022-11-27T14:35:52.011Z,87.29
2022-11-27T14:38:19.000Z,87.45
2022-11-27T14:40:46.397Z,87.56
2022-11-27T14:43:24.018Z,87.84
2022-11-27T14:45:53.812Z,87.74
2022-11-27T14:48:25.617Z,87.84
2022-11-27T14:50:54.680Z,87.46
2022-11-27T14:53:23.821Z,87.11
2022-11-27T14:55:54.540Z,87.38
2022-11-27T14:58:25.663Z,86.99
2022-11-27T15:01:07.137Z,87.08
2022-11-27T15:03:34.385Z,86.98
2022-11-27T15:06:03.870Z,86.42
2022-11-27T15:08:34.523Z,86.84
2022-11-27T15:11:02.591Z,85.94
2022-11-27T15:13:37.198Z,85.71
2022-11-27T15:16:19.196Z,85.74
2022-11-27T15:19:17.080Z,85.09
2022-11-27T15:21:49.563Z,85.18
2022-11-27T15:24:34.102Z,85.08
2022-11-27T15:27:15.510Z,84.67
2022-11-27T15:30:08.372Z,84.21
2022-11-27T15:32:52.215Z,84.27
2022-11-27T15:35:32.454Z,84.23
2022-11-27T15:38:04.463Z,83.78
2022-11-27T15:40:38.501Z,83.58
2022-11-27T15:43:16.094Z,84.16
2022-11-27T15:45:43.781Z,83.95
2022-11-27T15:48:22.265Z,84.01
2022-11-27T15:50:51.841Z,83.70
2022-11-27T15:53:18.613Z,83.82
2022-11-27T15:55:45.121Z,83.88
2022-11-27T15:58:11.639Z,84.03
2022-11-27T16:00:38.216Z,83.57
2022-11-27T16:03:04.755Z,83.39
2022-11-27T16:05:31.229Z,82.20
2022-11-27T16:07:57.834Z,82.43
2022-11-27T16:10:24.636Z,82.94
2022-11-27T16:12:54.855Z,82.76
2022-11-27T16:15:23.191Z,82.80
2022-11-27T16:17:51.261Z,82.85
2022-11-27T16:20:17.779Z,82.83
2022-11-27T16:22:44.334Z,83.44
2022-11-27T16:25:13.085Z,83.13
2022-11-27T16:27:39.530Z,83.19
2022-11-27T16:30:07.032Z,83.57
2022-11-27T16:32:37.982Z,83.40
2022-11-27T16:35:05.912Z,82.94
2022-11-27T16:37:33.400Z,83.02
2022-11-27T16:40:00.659Z,82.84
2022-11-27T16:42:27.632Z,82.85
2022-11-27T16:44:54.919Z,83.13
2022-11-27T16:47:21.602Z,82.84
2022-11-27T16:49:48.881Z,82.70
2022-11-27T16:52:15.881Z,82.70
2022-11-27T16:54:43.166Z,82.67
2022-11-27T16:57:09.816Z,82.75
2022-11-27T16:59:38.275Z,83.03
2022-11-27T17:02:05.406Z,82.73
2022-11-27T17:04:31.906Z,82.59
2022-11-27T17:06:59.785Z,83.01
2022-11-27T17:09:29.241Z,82.85
2022-11-27T17:11:55.819Z,82.86
2022-11-27T17:14:26.862Z,82.98
2022-11-27T17:16:53.595Z,83.34
2022-11-27T17:19:20.233Z,82.92
2022-11-27T17:21:46.760Z,82.86
2022-11-27T17:24:15.776Z,82.48
2022-11-27T17:26:45.259Z,82.55
2022-11-27T17:29:14.402Z,82.66
2022-11-27T17:31:41.423Z,82.44
2022-11-27T17:34:12.554Z,82.29
2022-11-27T17:36:41.902Z,82.09
2022-11-27T17:39:09.521Z,82.41
2022-11-27T17:41:36.297Z,82.01
2022-11-27T17:44:05.311Z,82.06
2022-11-27T17:46:32.434Z,82.10
2022-11-27T17:49:01.025Z,82.66
2022-11-27T17:51:30.814Z,81.78
2022-11-27T17:54:01.058Z,82.46
2022-11-27T17:56:30.809Z,82.13
2022-11-27T17:58:59.676Z,82.47
2022-11-27T18:01:29.088Z,82.68
2022-11-27T18:04:00.353Z,82.63
2022-11-27T18:06:29.644Z,82.65
2022-11-27T18:08:58.077Z,82.15
2022-11-27T18:11:27.703Z,82.14
2022-11-27T18:13:56.070Z,82.49
2022-11-27T18:16:29.670Z,82.69
2022-11-27T18:18:57.963Z,82.48
2022-11-27T18:21:27.026Z,82.09
2022-11-27T18:24:22.099Z,82.90
2022-11-27T18:29:28.120Z,82.16
2022-11-27T18:31:54.884Z,82.22
2022-11-27T18:34:21.446Z,82.11
2022-11-27T18:36:47.887Z,82.36
2022-11-27T18:39:14.322Z,82.96
2022-11-27T18:41:40.906Z,82.75
2022-11-27T18:44:10.109Z,82.80
2022-11-27T18:46:37.759Z,82.05
2022-11-27T18:49:04.520Z,82.44
2022-11-27T18:51:30.962Z,82.11
2022-11-27T18:53:57.943Z,82.67
2022-11-27T18:56:28.244Z,82.88
2022-11-27T18:58:55.290Z,82.97
2022-11-27T19:01:25.573Z,82.41
2022-11-27T19:03:52.985Z,82.92
2022-11-27T19:06:21.571Z,82.74
2022-11-27T19:08:48.681Z,82.64
2022-11-27T19:11:19.022Z,82.25
2022-11-27T19:13:46.291Z,82.46
2022-11-27T19:16:16.406Z,82.61
2022-11-27T19:18:43.414Z,82.64
2022-11-27T19:21:11.680Z,82.47
2022-11-27T19:23:39.545Z,82.48
2022-11-27T19:26:11.908Z,82.47
2022-11-27T19:28:40.369Z,82.78
2022-11-27T19:31:10.145Z,82.78
2022-11-27T19:33:38.777Z,82.17
2022-11-27T19:36:12.929Z,82.52
2022-11-27T19:38:42.078Z,82.39
2022-11-27T19:41:14.709Z,82.21
2022-11-27T19:43:41.253Z,82.73
2022-11-27T19:46:19.674Z,82.58
2022-11-27T19:48:46.767Z,82.77
2022-11-27T19:51:13.391Z,82.65
2022-11-27T19:53:40.162Z,82.71
2022-11-27T19:56:07.605Z,83.08
2022-11-27T19:58:34.721Z,82.34
2022-11-27T20:01:16.136Z,83.25
2022-11-27T20:03:43.641Z,83.00
2022-11-27T20:06:16.072Z,83.07
2022-11-27T20:08:44.074Z,82.85
2022-11-27T20:11:13.083Z,82.57
2022-11-27T20:13:39.671Z,82.50
2022-11-27T20:16:07.761Z,82.11
2022-11-27T20:18:34.348Z,82.51
2022-11-27T20:21:05.778Z,82.75
2022-11-27T20:23:32.746Z,83.26
2022-11-27T20:25:59.404Z,82.96
2022-11-27T20:28:25.912Z,82.44
2022-11-27T20:30:57.333Z,83.24
2022-11-27T20:33:23.890Z,82.90
2022-11-27T20:35:51.346Z,83.26
2022-11-27T20:38:18.291Z,83.00
2022-11-27T20:40:44.897Z,83.34
2022-11-27T20:43:11.521Z,82.96
2022-11-27T20:45:39.774Z,82.55
2022-11-27T20:48:07.675Z,83.16
2022-11-27T20:50:35.944Z,82.94
2022-11-27T20:53:03.362Z,82.93
2022-11-27T20:55:29.928Z,83.46
2022-11-27T20:57:57.152Z,82.59
2022-11-27T21:00:24.232Z,83.30
2022-11-27T21:02:50.776Z,83.17
2022-11-27T21:05:18.627Z,83.25
2022-11-27T21:07:45.202Z,83.43
2022-11-27T21:10:15.870Z,83.25
2022-11-27T21:12:43.072Z,82.89
2022-11-27T21:15:10.305Z,82.69
2022-11-27T21:17:36.877Z,83.27
2022-11-27T21:20:04.396Z,82.51
2022-11-27T21:22:32.268Z,82.73
2022-11-27T21:24:59.200Z,82.79
2022-11-27T21:27:25.655Z,83.00
2022-11-27T21:29:52.733Z,83.16
2022-11-27T21:32:22.418Z,83.25
2022-11-27T21:34:49.061Z,82.51
2022-11-27T21:37:15.621Z,83.13
2022-11-27T21:39:44.489Z,83.03
2022-11-27T21:42:11.116Z,82.88
2022-11-27T21:44:41.304Z,83.34
2022-11-27T21:47:11.969Z,83.07
2022-11-27T21:49:39.910Z,83.30
2022-11-27T21:52:08.233Z,83.71
2022-11-27T21:54:36.106Z,83.37
2022-11-27T21:57:02.727Z,82.99
2022-11-27T21:59:29.201Z,82.86
2022-11-27T22:01:57.281Z,83.04
2022-11-27T22:04:24.764Z,82.70
2022-11-27T22:06:51.398Z,83.00
2022-11-27T22:09:18.343Z,82.69
2022-11-27T22:11:46.180Z,82.69
2022-11-27T22:14:14.860Z,83.53
2022-11-27T22:16:46.000Z,82.87
2022-11-27T22:19:14.283Z,83.61
2022-11-27T22:21:41.104Z,83.65
2022-11-27T22:24:12.228Z,82.93
2022-11-27T22:26:43.306Z,83.33
2022-11-27T22:29:09.756Z,82.93
2022-11-27T22:31:36.775Z,83.16
2022-11-27T22:34:04.136Z,83.90
2022-11-27T22:36:33.293Z,83.76
2022-11-27T22:39:04.334Z,83.71
2022-11-27T22:41:36.056Z,83.95
2022-11-27T22:44:07.591Z,83.89
2022-11-27T22:46:36.118Z,84.40
2022-11-27T22:49:05.833Z,84.99
2022-11-27T22:51:35.435Z,84.65
2022-11-27T22:54:03.642Z,84.92
2022-11-27T22:56:30.411Z,85.52
2022-11-27T22:59:30.688Z,85.01
2022-11-27T23:01:48.678Z,85.36
2022-11-27T23:04:16.230Z,85.26
2022-11-27T23:06:47.795Z,85.13
2022-11-27T23:09:15.546Z,85.58
2022-11-27T23:11:42.011Z,84.43
2022-11-27T23:14:08.801Z,84.46
2022-11-27T23:16:35.406Z,84.51
2022-11-27T23:19:01.924Z,84.29
2022-11-27T23:21:28.471Z,84.77
2022-11-27T23:23:54.940Z,85.44
2022-11-27T23:26:23.515Z,85.00
2022-11-27T23:28:53.391Z,85.00
2022-11-27T23:31:32.320Z,85.53
2022-11-27T23:34:01.583Z,84.99
2022-11-27T23:36:29.395Z,85.83
2022-11-27T23:38:56.236Z,85.50
2022-11-27T23:41:24.494Z,85.27
2022-11-27T23:43:52.144Z,85.09
2022-11-27T23:46:21.046Z,84.82
2022-11-27T23:48:48.214Z,85.65
2022-11-27T23:51:19.359Z,85.71
2022-11-27T23:53:46.399Z,86.17
2022-11-27T23:56:18.889Z,85.34
2022-11-27T23:58:47.244Z,85.91
